Caribe Navigator — V2PW6 — position and weather

sailwx.info

Track history (hours):
 
Tides and Currents Weather Stations Pressure Air Temp Water Temp Dewpoint Dewpoint Depression Visibility Wind Speed Wind Dir Waves Ship Positions

Caribe Navigator

Last reported at 2015-Mar-02 22:31 UTC. Time now 2015-Mar-02 23:07 UTC.
Position N 26°05' W 080°07'.

Length 100 m; draft 4.6 m.

Type: Cargo ship. MMSI: 305289000.

Date/timePositionNaut miles runAvg speedWind from/ knotsBaromVisibWave heightAir tempDewpointWater temp
2015-Mar-02 22:31N 26°05' W 080°07'0 0.0
2015-Mar-02 21:31N 26°05' W 080°07'0 0.0
2015-Mar-02 20:31N 26°05' W 080°07'0 0.0
2015-Mar-02 19:31N 26°05' W 080°07'0 0.0
2015-Mar-02 18:31N 26°05' W 080°07'0 0.0
2015-Mar-02 17:22N 26°05' W 080°07'0 0.0
2015-Mar-02 16:22N 26°05' W 080°07'0 0.0
2015-Mar-02 15:25N 26°05' W 080°07'0 0.0
2015-Mar-02 14:25N 26°05' W 080°07'3 3.4
2015-Mar-02 13:33N 26°05' W 080°04'5 5.3
2015-Mar-02 12:33N 26°01' W 080°01'8 8.1
2015-Mar-02 11:33N 25°53' W 079°57'16 0.5
2015-Mar-01 03:33N 25°38' W 080°01'1010.1
2015-Mar-01 02:33N 25°48' W 080°03'1111.2
2015-Mar-01 01:33N 25°59' W 080°04'7 7.1
2015-Mar-01 00:33N 26°06' W 080°07'0 0.0
2015-Feb-28 23:28N 26°06' W 080°07'0 0.0
2015-Feb-28 22:28N 26°06' W 080°07'0 0.0
2015-Feb-28 21:28N 26°06' W 080°07'0 0.0
2015-Feb-28 20:28N 26°06' W 080°07'0 0.0
2015-Feb-28 19:31N 26°06' W 080°07'0 0.0
2015-Feb-28 18:31N 26°06' W 080°07'0 0.0
2015-Feb-28 17:31N 26°06' W 080°07'0 0.0
2015-Feb-28 16:31N 26°06' W 080°07'0 0.0
2015-Feb-28 15:31N 26°06' W 080°07'0 0.0
2015-Feb-28 14:31N 26°06' W 080°07'0 0.0
2015-Feb-28 13:31N 26°06' W 080°07'0 0.0
2015-Feb-28 12:31N 26°06' W 080°07'0 0.0
2015-Feb-28 11:31N 26°06' W 080°07'0 0.0
2015-Feb-28 10:31N 26°06' W 080°07'0 0.0
2015-Feb-28 09:22N 26°06' W 080°07'0 0.0
2015-Feb-28 08:31N 26°06' W 080°07'0 0.0
2015-Feb-28 07:31N 26°06' W 080°07'0 0.0
2015-Feb-28 06:22N 26°06' W 080°07'0 0.0
2015-Feb-28 05:22N 26°06' W 080°07'0 0.0
2015-Feb-28 04:25N 26°06' W 080°07'0 0.0
2015-Feb-28 03:25N 26°06' W 080°07'0 0.0
2015-Feb-28 02:25N 26°06' W 080°07'0 0.0
2015-Feb-28 01:25N 26°06' W 080°07'0 0.0
2015-Feb-28 00:25N 26°06' W 080°07'0 0.0
2015-Feb-27 23:28N 26°06' W 080°07'0 0.0
2015-Feb-27 22:28N 26°06' W 080°07'0 0.0
2015-Feb-27 21:28N 26°06' W 080°07'0 0.0
2015-Feb-27 20:28N 26°06' W 080°07'0 0.0
2015-Feb-27 19:28N 26°06' W 080°07'0 0.0
2015-Feb-27 18:31N 26°06' W 080°07'0 0.0
2015-Feb-27 17:31N 26°06' W 080°07'0 0.0
2015-Feb-27 16:31N 26°06' W 080°07'0 0.1
2015-Feb-27 15:30N 26°05' W 080°07'0 0.0
2015-Feb-27 14:30N 26°05' W 080°07'0 0.0
2015-Feb-27 13:33N 26°05' W 080°07'0 0.0
2015-Feb-27 12:33N 26°05' W 080°07'0 0.0
2015-Feb-27 11:33N 26°05' W 080°07'0 0.0
2015-Feb-27 10:33N 26°05' W 080°07'0 0.0
2015-Feb-27 09:33N 26°05' W 080°07'0 0.0
2015-Feb-27 08:33N 26°05' W 080°07'0 0.0
2015-Feb-27 07:33N 26°05' W 080°07'0 0.0
2015-Feb-27 06:33N 26°05' W 080°07'0 0.0
2015-Feb-27 05:33N 26°05' W 080°07'2 2.4
2015-Feb-27 04:33N 26°05' W 080°05'2 1.7
2015-Feb-27 03:33N 26°03' W 080°04'3 2.8
2015-Feb-27 02:33N 26°01' W 080°02'3 3.2
2015-Feb-27 01:33N 25°58' W 080°01'4 4.2
2015-Feb-27 00:33N 25°54' W 079°60'5 4.8
2015-Feb-26 23:33N 25°49' W 079°58'5 5.1
2015-Feb-26 22:33N 25°45' W 079°56'5 5.0
2015-Feb-26 21:33N 25°40' W 079°53'  
Track history (hours):
 
Tides and Currents Weather Stations Pressure Air Temp Water Temp Dewpoint Dewpoint Depression Visibility Wind Speed Wind Dir Waves Ship Positions

Caribe Navigator

Last reported at 2015-Mar-02 22:31 UTC. Time now 2015-Mar-02 23:07 UTC.
Position N 26°05' W 080°07'.

Length 100 m; draft 4.6 m.

Type: Cargo ship. MMSI: 305289000.

Date/timePositionNaut miles runAvg speedWind from/ knotsBaromVisibWave heightAir tempDewpointWater temp
2015-Mar-02 22:31N 26°05' W 080°07'0 0.0
2015-Mar-02 21:31N 26°05' W 080°07'0 0.0
2015-Mar-02 20:31N 26°05' W 080°07'0 0.0
2015-Mar-02 19:31N 26°05' W 080°07'0 0.0
2015-Mar-02 18:31N 26°05' W 080°07'0 0.0
2015-Mar-02 17:22N 26°05' W 080°07'0 0.0
2015-Mar-02 16:22N 26°05' W 080°07'0 0.0
2015-Mar-02 15:25N 26°05' W 080°07'0 0.0
2015-Mar-02 14:25N 26°05' W 080°07'3 3.4
2015-Mar-02 13:33N 26°05' W 080°04'5 5.3
2015-Mar-02 12:33N 26°01' W 080°01'8 8.1
2015-Mar-02 11:33N 25°53' W 079°57'16 0.5
2015-Mar-01 03:33N 25°38' W 080°01'1010.1
2015-Mar-01 02:33N 25°48' W 080°03'1111.2
2015-Mar-01 01:33N 25°59' W 080°04'7 7.1
2015-Mar-01 00:33N 26°06' W 080°07'0 0.0
2015-Feb-28 23:28N 26°06' W 080°07'0 0.0
2015-Feb-28 22:28N 26°06' W 080°07'0 0.0
2015-Feb-28 21:28N 26°06' W 080°07'0 0.0
2015-Feb-28 20:28N 26°06' W 080°07'0 0.0
2015-Feb-28 19:31N 26°06' W 080°07'0 0.0
2015-Feb-28 18:31N 26°06' W 080°07'0 0.0
2015-Feb-28 17:31N 26°06' W 080°07'0 0.0
2015-Feb-28 16:31N 26°06' W 080°07'0 0.0
2015-Feb-28 15:31N 26°06' W 080°07'0 0.0
2015-Feb-28 14:31N 26°06' W 080°07'0 0.0
2015-Feb-28 13:31N 26°06' W 080°07'0 0.0
2015-Feb-28 12:31N 26°06' W 080°07'0 0.0
2015-Feb-28 11:31N 26°06' W 080°07'0 0.0
2015-Feb-28 10:31N 26°06' W 080°07'0 0.0
2015-Feb-28 09:22N 26°06' W 080°07'0 0.0
2015-Feb-28 08:31N 26°06' W 080°07'0 0.0
2015-Feb-28 07:31N 26°06' W 080°07'0 0.0
2015-Feb-28 06:22N 26°06' W 080°07'0 0.0
2015-Feb-28 05:22N 26°06' W 080°07'0 0.0
2015-Feb-28 04:25N 26°06' W 080°07'0 0.0
2015-Feb-28 03:25N 26°06' W 080°07'0 0.0
2015-Feb-28 02:25N 26°06' W 080°07'0 0.0
2015-Feb-28 01:25N 26°06' W 080°07'0 0.0
2015-Feb-28 00:25N 26°06' W 080°07'0 0.0
2015-Feb-27 23:28N 26°06' W 080°07'0 0.0
2015-Feb-27 22:28N 26°06' W 080°07'0 0.0
2015-Feb-27 21:28N 26°06' W 080°07'0 0.0
2015-Feb-27 20:28N 26°06' W 080°07'0 0.0
2015-Feb-27 19:28N 26°06' W 080°07'0 0.0
2015-Feb-27 18:31N 26°06' W 080°07'0 0.0
2015-Feb-27 17:31N 26°06' W 080°07'0 0.0
2015-Feb-27 16:31N 26°06' W 080°07'0 0.1
2015-Feb-27 15:30N 26°05' W 080°07'0 0.0
2015-Feb-27 14:30N 26°05' W 080°07'0 0.0
2015-Feb-27 13:33N 26°05' W 080°07'0 0.0
2015-Feb-27 12:33N 26°05' W 080°07'0 0.0
2015-Feb-27 11:33N 26°05' W 080°07'0 0.0
2015-Feb-27 10:33N 26°05' W 080°07'0 0.0
2015-Feb-27 09:33N 26°05' W 080°07'0 0.0
2015-Feb-27 08:33N 26°05' W 080°07'0 0.0
2015-Feb-27 07:33N 26°05' W 080°07'0 0.0
2015-Feb-27 06:33N 26°05' W 080°07'0 0.0
2015-Feb-27 05:33N 26°05' W 080°07'2 2.4
2015-Feb-27 04:33N 26°05' W 080°05'2 1.7
2015-Feb-27 03:33N 26°03' W 080°04'3 2.8
2015-Feb-27 02:33N 26°01' W 080°02'3 3.2
2015-Feb-27 01:33N 25°58' W 080°01'4 4.2
2015-Feb-27 00:33N 25°54' W 079°60'5 4.8
2015-Feb-26 23:33N 25°49' W 079°58'5 5.1
2015-Feb-26 22:33N 25°45' W 079°56'5 5.0
2015-Feb-26 21:33N 25°40' W 079°53'  

Dump ship's entire track history